sensor_id;sensor_type;location;lat;lon;timestamp;pressure;altitude;pressure_sealevel;temperature;humidity
58223;BME280;44020;50.890;15.796;2023-04-07T00:01:02;97815.84;;;1.58;59.11
58223;BME280;44020;50.890;15.796;2023-04-07T00:03:29;97815.50;;;1.58;59.10
58223;BME280;44020;50.890;15.796;2023-04-07T00:05:56;97811.55;;;1.60;59.13
58223;BME280;44020;50.890;15.796;2023-04-07T00:08:24;97807.67;;;1.61;59.02
58223;BME280;44020;50.890;15.796;2023-04-07T00:10:51;97807.94;;;1.58;58.78
58223;BME280;44020;50.890;15.796;2023-04-07T00:13:19;97803.63;;;1.56;59.27
58223;BME280;44020;50.890;15.796;2023-04-07T00:15:46;97804.66;;;1.57;59.24
58223;BME280;44020;50.890;15.796;2023-04-07T00:18:14;97807.05;;;1.54;58.72
58223;BME280;44020;50.890;15.796;2023-04-07T00:20:41;97801.98;;;1.53;59.31
58223;BME280;44020;50.890;15.796;2023-04-07T00:23:09;97804.92;;;1.54;59.15
58223;BME280;44020;50.890;15.796;2023-04-07T00:25:36;97809.32;;;1.48;58.86
58223;BME280;44020;50.890;15.796;2023-04-07T00:28:03;97803.62;;;1.46;59.67
58223;BME280;44020;50.890;15.796;2023-04-07T00:30:31;97805.57;;;1.51;59.77
58223;BME280;44020;50.890;15.796;2023-04-07T00:32:58;97802.50;;;1.54;59.97
58223;BME280;44020;50.890;15.796;2023-04-07T00:35:26;97800.51;;;1.55;59.78
58223;BME280;44020;50.890;15.796;2023-04-07T00:37:54;97799.91;;;1.57;59.95
58223;BME280;44020;50.890;15.796;2023-04-07T00:40:21;97798.70;;;1.57;59.52
58223;BME280;44020;50.890;15.796;2023-04-07T00:42:49;97795.84;;;1.54;59.26
58223;BME280;44020;50.890;15.796;2023-04-07T00:45:17;97796.60;;;1.52;59.59
58223;BME280;44020;50.890;15.796;2023-04-07T00:47:44;97791.86;;;1.52;59.98
58223;BME280;44020;50.890;15.796;2023-04-07T00:50:11;97787.34;;;1.57;60.18
58223;BME280;44020;50.890;15.796;2023-04-07T00:52:39;97784.16;;;1.57;59.83
58223;BME280;44020;50.890;15.796;2023-04-07T00:55:07;97779.87;;;1.55;59.58
58223;BME280;44020;50.890;15.796;2023-04-07T00:57:34;97775.40;;;1.52;60.08
58223;BME280;44020;50.890;15.796;2023-04-07T01:00:01;97773.96;;;1.54;60.31
58223;BME280;44020;50.890;15.796;2023-04-07T01:02:40;97773.66;;;1.58;60.63
58223;BME280;44020;50.890;15.796;2023-04-07T01:05:14;97774.74;;;1.56;60.55
58223;BME280;44020;50.890;15.796;2023-04-07T01:13:08;97765.36;;;1.59;60.36
58223;BME280;44020;50.890;15.796;2023-04-07T01:15:38;97763.04;;;1.56;60.67
58223;BME280;44020;50.890;15.796;2023-04-07T01:18:11;97762.14;;;1.51;60.03
58223;BME280;44020;50.890;15.796;2023-04-07T01:20:40;97763.73;;;1.45;61.01
58223;BME280;44020;50.890;15.796;2023-04-07T01:23:14;97761.40;;;1.48;61.11
58223;BME280;44020;50.890;15.796;2023-04-07T01:30:59;97754.96;;;1.51;61.26
58223;BME280;44020;50.890;15.796;2023-04-07T01:33:27;97754.84;;;1.49;61.00
58223;BME280;44020;50.890;15.796;2023-04-07T01:36:01;97753.69;;;1.47;61.07
58223;BME280;44020;50.890;15.796;2023-04-07T01:38:29;97748.16;;;1.45;61.12
58223;BME280;44020;50.890;15.796;2023-04-07T01:40:57;97751.48;;;1.45;61.17
58223;BME280;44020;50.890;15.796;2023-04-07T01:43:25;97747.77;;;1.46;61.44
58223;BME280;44020;50.890;15.796;2023-04-07T01:45:54;97744.10;;;1.51;61.52
58223;BME280;44020;50.890;15.796;2023-04-07T01:48:22;97743.89;;;1.53;61.52
58223;BME280;44020;50.890;15.796;2023-04-07T01:50:52;97742.73;;;1.55;62.03
58223;BME280;44020;50.890;15.796;2023-04-07T01:53:21;97743.36;;;1.57;61.73
58223;BME280;44020;50.890;15.796;2023-04-07T01:55:49;97744.48;;;1.55;61.66
58223;BME280;44020;50.890;15.796;2023-04-07T01:58:17;97740.27;;;1.56;61.67
58223;BME280;44020;50.890;15.796;2023-04-07T02:00:45;97739.83;;;1.53;61.80
58223;BME280;44020;50.890;15.796;2023-04-07T02:03:14;97737.84;;;1.55;62.15
58223;BME280;44020;50.890;15.796;2023-04-07T02:05:47;97737.80;;;1.56;61.81
58223;BME280;44020;50.890;15.796;2023-04-07T02:08:16;97734.15;;;1.55;62.18
58223;BME280;44020;50.890;15.796;2023-04-07T02:10:45;97739.38;;;1.56;61.86
58223;BME280;44020;50.890;15.796;2023-04-07T02:13:14;97734.64;;;1.57;61.93
58223;BME280;44020;50.890;15.796;2023-04-07T02:15:42;97734.83;;;1.56;62.13
58223;BME280;44020;50.890;15.796;2023-04-07T02:18:12;97734.45;;;1.57;62.08
58223;BME280;44020;50.890;15.796;2023-04-07T02:20:40;97730.39;;;1.58;61.89
58223;BME280;44020;50.890;15.796;2023-04-07T02:23:08;97728.91;;;1.60;61.91
58223;BME280;44020;50.890;15.796;2023-04-07T02:25:36;97728.38;;;1.60;61.44
58223;BME280;44020;50.890;15.796;2023-04-07T02:28:06;97730.27;;;1.56;61.59
58223;BME280;44020;50.890;15.796;2023-04-07T02:30:34;97728.20;;;1.55;61.98
58223;BME280;44020;50.890;15.796;2023-04-07T02:33:02;97728.63;;;1.53;61.68
58223;BME280;44020;50.890;15.796;2023-04-07T02:35:30;97726.08;;;1.51;61.87
58223;BME280;44020;50.890;15.796;2023-04-07T02:37:57;97722.23;;;1.51;62.11
58223;BME280;44020;50.890;15.796;2023-04-07T02:40:25;97722.41;;;1.51;62.02
58223;BME280;44020;50.890;15.796;2023-04-07T02:42:52;97719.80;;;1.50;62.02
58223;BME280;44020;50.890;15.796;2023-04-07T02:45:20;97719.27;;;1.50;61.95
58223;BME280;44020;50.890;15.796;2023-04-07T02:47:47;97722.16;;;1.48;62.14
58223;BME280;44020;50.890;15.796;2023-04-07T02:50:15;97721.16;;;1.46;62.31
58223;BME280;44020;50.890;15.796;2023-04-07T02:52:42;97719.98;;;1.45;62.66
58223;BME280;44020;50.890;15.796;2023-04-07T02:55:10;97717.27;;;1.47;62.29
58223;BME280;44020;50.890;15.796;2023-04-07T02:57:37;97710.27;;;1.48;62.55
58223;BME280;44020;50.890;15.796;2023-04-07T03:00:05;97711.76;;;1.50;62.63
58223;BME280;44020;50.890;15.796;2023-04-07T03:02:32;97711.37;;;1.51;62.97
58223;BME280;44020;50.890;15.796;2023-04-07T03:04:59;97709.10;;;1.51;62.40
58223;BME280;44020;50.890;15.796;2023-04-07T03:07:27;97705.27;;;1.50;62.96
58223;BME280;44020;50.890;15.796;2023-04-07T03:09:55;97704.52;;;1.51;62.93
58223;BME280;44020;50.890;15.796;2023-04-07T03:12:22;97708.16;;;1.52;62.83
58223;BME280;44020;50.890;15.796;2023-04-07T03:14:50;97713.71;;;1.49;62.69
58223;BME280;44020;50.890;15.796;2023-04-07T03:17:17;97710.65;;;1.46;63.18
58223;BME280;44020;50.890;15.796;2023-04-07T03:19:44;97715.80;;;1.50;63.11
58223;BME280;44020;50.890;15.796;2023-04-07T03:22:13;97713.05;;;1.53;63.38
58223;BME280;44020;50.890;15.796;2023-04-07T03:24:40;97715.08;;;1.55;62.77
58223;BME280;44020;50.890;15.796;2023-04-07T03:27:08;97709.89;;;1.53;63.03
58223;BME280;44020;50.890;15.796;2023-04-07T03:29:36;97711.56;;;1.56;63.42
58223;BME280;44020;50.890;15.796;2023-04-07T03:32:03;97712.08;;;1.56;63.56
58223;BME280;44020;50.890;15.796;2023-04-07T03:34:31;97712.24;;;1.56;63.37
58223;BME280;44020;50.890;15.796;2023-04-07T03:36:58;97714.59;;;1.59;63.90
58223;BME280;44020;50.890;15.796;2023-04-07T03:39:26;97712.58;;;1.62;63.83
58223;BME280;44020;50.890;15.796;2023-04-07T03:41:53;97711.23;;;1.60;63.84
58223;BME280;44020;50.890;15.796;2023-04-07T03:44:20;97712.04;;;1.62;63.82
58223;BME280;44020;50.890;15.796;2023-04-07T03:46:49;97713.87;;;1.64;63.93
58223;BME280;44020;50.890;15.796;2023-04-07T03:49:16;97713.27;;;1.67;64.02
58223;BME280;44020;50.890;15.796;2023-04-07T03:51:44;97717.58;;;1.69;64.17
58223;BME280;44020;50.890;15.796;2023-04-07T03:54:11;97716.17;;;1.69;64.26
58223;BME280;44020;50.890;15.796;2023-04-07T03:56:39;97715.21;;;1.71;64.16
58223;BME280;44020;50.890;15.796;2023-04-07T03:59:07;97718.70;;;1.72;64.28
58223;BME280;44020;50.890;15.796;2023-04-07T04:01:35;97716.38;;;1.73;64.59
58223;BME280;44020;50.890;15.796;2023-04-07T04:04:02;97718.77;;;1.75;64.53
58223;BME280;44020;50.890;15.796;2023-04-07T04:06:30;97719.45;;;1.76;64.84
58223;BME280;44020;50.890;15.796;2023-04-07T04:08:58;97722.38;;;1.77;65.18
58223;BME280;44020;50.890;15.796;2023-04-07T04:11:25;97722.54;;;1.77;65.13
58223;BME280;44020;50.890;15.796;2023-04-07T04:13:53;97720.44;;;1.77;65.18
58223;BME280;44020;50.890;15.796;2023-04-07T04:16:21;97722.40;;;1.77;65.47
58223;BME280;44020;50.890;15.796;2023-04-07T04:18:48;97722.95;;;1.76;65.29
58223;BME280;44020;50.890;15.796;2023-04-07T04:21:16;97725.80;;;1.74;65.44
58223;BME280;44020;50.890;15.796;2023-04-07T04:23:43;97729.48;;;1.74;65.31
58223;BME280;44020;50.890;15.796;2023-04-07T04:26:10;97729.52;;;1.73;65.46
58223;BME280;44020;50.890;15.796;2023-04-07T04:28:37;97729.13;;;1.69;65.00
58223;BME280;44020;50.890;15.796;2023-04-07T04:31:05;97735.27;;;1.63;64.95
58223;BME280;44020;50.890;15.796;2023-04-07T04:33:32;97738.73;;;1.59;65.51
58223;BME280;44020;50.890;15.796;2023-04-07T04:36:00;97737.43;;;1.57;65.59
58223;BME280;44020;50.890;15.796;2023-04-07T04:38:27;97736.13;;;1.54;65.91
58223;BME280;44020;50.890;15.796;2023-04-07T04:40:54;97731.86;;;1.56;66.65
58223;BME280;44020;50.890;15.796;2023-04-07T04:43:21;97729.10;;;1.60;66.93
58223;BME280;44020;50.890;15.796;2023-04-07T04:45:48;97728.23;;;1.64;66.60
58223;BME280;44020;50.890;15.796;2023-04-07T04:48:15;97729.59;;;1.66;66.26
58223;BME280;44020;50.890;15.796;2023-04-07T04:50:43;97726.18;;;1.69;66.35
58223;BME280;44020;50.890;15.796;2023-04-07T04:53:10;97726.47;;;1.70;66.43
58223;BME280;44020;50.890;15.796;2023-04-07T04:55:37;97726.05;;;1.72;66.59
58223;BME280;44020;50.890;15.796;2023-04-07T04:58:06;97727.26;;;1.73;66.69
58223;BME280;44020;50.890;15.796;2023-04-07T05:00:33;97727.94;;;1.73;67.08
58223;BME280;44020;50.890;15.796;2023-04-07T05:03:00;97725.55;;;1.76;67.55
58223;BME280;44020;50.890;15.796;2023-04-07T05:05:29;97721.39;;;1.81;67.92
58223;BME280;44020;50.890;15.796;2023-04-07T05:07:55;97717.60;;;1.83;67.75
58223;BME280;44020;50.890;15.796;2023-04-07T05:10:22;97712.97;;;1.85;67.36
58223;BME280;44020;50.890;15.796;2023-04-07T05:12:49;97710.48;;;1.87;67.07
58223;BME280;44020;50.890;15.796;2023-04-07T05:15:17;97708.86;;;1.88;67.46
58223;BME280;44020;50.890;15.796;2023-04-07T05:17:44;97715.08;;;1.91;67.54
58223;BME280;44020;50.890;15.796;2023-04-07T05:20:16;97714.62;;;1.94;67.80
58223;BME280;44020;50.890;15.796;2023-04-07T05:22:43;97716.29;;;1.96;67.59
58223;BME280;44020;50.890;15.796;2023-04-07T05:25:10;97716.52;;;1.99;67.93
58223;BME280;44020;50.890;15.796;2023-04-07T05:27:38;97717.16;;;2.01;67.91
58223;BME280;44020;50.890;15.796;2023-04-07T05:30:07;97713.70;;;2.04;68.34
58223;BME280;44020;50.890;15.796;2023-04-07T05:32:35;97709.85;;;2.09;68.60
58223;BME280;44020;50.890;15.796;2023-04-07T05:35:02;97710.56;;;2.14;68.55
58223;BME280;44020;50.890;15.796;2023-04-07T05:37:30;97711.86;;;2.17;68.76
58223;BME280;44020;50.890;15.796;2023-04-07T05:39:57;97709.67;;;2.19;68.70
58223;BME280;44020;50.890;15.796;2023-04-07T05:42:25;97711.27;;;2.23;68.52
58223;BME280;44020;50.890;15.796;2023-04-07T05:44:53;97710.16;;;2.24;68.35
58223;BME280;44020;50.890;15.796;2023-04-07T05:47:21;97715.73;;;2.26;68.65
58223;BME280;44020;50.890;15.796;2023-04-07T05:49:48;97717.04;;;2.28;68.45
58223;BME280;44020;50.890;15.796;2023-04-07T05:52:15;97714.19;;;2.29;68.35
58223;BME280;44020;50.890;15.796;2023-04-07T05:54:43;97720.83;;;2.30;68.62
58223;BME280;44020;50.890;15.796;2023-04-07T05:57:11;97713.77;;;2.32;68.35
58223;BME280;44020;50.890;15.796;2023-04-07T05:59:38;97713.95;;;2.32;67.32
58223;BME280;44020;50.890;15.796;2023-04-07T06:02:06;97716.13;;;2.29;67.69
58223;BME280;44020;50.890;15.796;2023-04-07T06:04:33;97716.83;;;2.29;67.89
58223;BME280;44020;50.890;15.796;2023-04-07T06:07:01;97713.35;;;2.28;67.67
58223;BME280;44020;50.890;15.796;2023-04-07T06:09:29;97716.48;;;2.29;68.14
58223;BME280;44020;50.890;15.796;2023-04-07T06:11:56;97717.23;;;2.33;68.05
58223;BME280;44020;50.890;15.796;2023-04-07T06:14:24;97716.09;;;2.35;68.35
58223;BME280;44020;50.890;15.796;2023-04-07T06:16:51;97712.30;;;2.38;67.83
58223;BME280;44020;50.890;15.796;2023-04-07T06:19:18;97716.15;;;2.39;68.01
58223;BME280;44020;50.890;15.796;2023-04-07T06:21:45;97713.81;;;2.40;68.35
58223;BME280;44020;50.890;15.796;2023-04-07T06:24:12;97713.88;;;2.43;68.54
58223;BME280;44020;50.890;15.796;2023-04-07T06:26:39;97716.20;;;2.47;68.74
58223;BME280;44020;50.890;15.796;2023-04-07T06:29:07;97714.21;;;2.48;68.52
58223;BME280;44020;50.890;15.796;2023-04-07T06:31:34;97724.67;;;2.49;68.17
58223;BME280;44020;50.890;15.796;2023-04-07T06:34:01;97726.10;;;2.48;68.20
58223;BME280;44020;50.890;15.796;2023-04-07T06:36:28;97725.80;;;2.48;68.36
58223;BME280;44020;50.890;15.796;2023-04-07T06:38:55;97726.09;;;2.49;68.76
58223;BME280;44020;50.890;15.796;2023-04-07T06:41:22;97726.03;;;2.51;68.75
58223;BME280;44020;50.890;15.796;2023-04-07T06:43:49;97721.73;;;2.53;68.77
58223;BME280;44020;50.890;15.796;2023-04-07T06:46:19;97715.52;;;2.55;68.79
58223;BME280;44020;50.890;15.796;2023-04-07T06:48:48;97717.25;;;2.56;68.32
58223;BME280;44020;50.890;15.796;2023-04-07T06:51:16;97719.23;;;2.54;68.39
58223;BME280;44020;50.890;15.796;2023-04-07T06:53:44;97715.04;;;2.54;68.86
58223;BME280;44020;50.890;15.796;2023-04-07T06:56:13;97715.81;;;2.56;68.97
58223;BME280;44020;50.890;15.796;2023-04-07T06:58:41;97720.41;;;2.60;68.55
58223;BME280;44020;50.890;15.796;2023-04-07T07:01:08;97719.46;;;2.62;68.59
58223;BME280;44020;50.890;15.796;2023-04-07T07:03:37;97717.45;;;2.64;68.56
58223;BME280;44020;50.890;15.796;2023-04-07T07:06:04;97720.45;;;2.64;68.57
58223;BME280;44020;50.890;15.796;2023-04-07T07:08:32;97715.83;;;2.65;68.26
58223;BME280;44020;50.890;15.796;2023-04-07T07:11:00;97712.30;;;2.65;68.31
58223;BME280;44020;50.890;15.796;2023-04-07T07:13:27;97707.14;;;2.68;68.76
58223;BME280;44020;50.890;15.796;2023-04-07T07:15:54;97705.98;;;2.71;68.62
58223;BME280;44020;50.890;15.796;2023-04-07T07:18:21;97709.42;;;2.73;68.08
58223;BME280;44020;50.890;15.796;2023-04-07T07:20:48;97714.12;;;2.74;68.46
58223;BME280;44020;50.890;15.796;2023-04-07T07:23:16;97707.54;;;2.76;68.69
58223;BME280;44020;50.890;15.796;2023-04-07T07:25:43;97714.39;;;2.80;68.68
58223;BME280;44020;50.890;15.796;2023-04-07T07:28:11;97712.84;;;2.84;68.40
58223;BME280;44020;50.890;15.796;2023-04-07T07:30:38;97711.96;;;2.88;68.57
58223;BME280;44020;50.890;15.796;2023-04-07T07:33:07;97710.75;;;2.92;67.80
58223;BME280;44020;50.890;15.796;2023-04-07T07:35:34;97713.33;;;2.94;68.02
58223;BME280;44020;50.890;15.796;2023-04-07T07:38:03;97707.77;;;2.96;68.47
58223;BME280;44020;50.890;15.796;2023-04-07T07:40:30;97710.84;;;3.03;68.27
58223;BME280;44020;50.890;15.796;2023-04-07T07:42:58;97710.27;;;3.09;68.00
58223;BME280;44020;50.890;15.796;2023-04-07T07:45:25;97709.92;;;3.13;67.84
58223;BME280;44020;50.890;15.796;2023-04-07T07:47:52;97715.98;;;3.15;67.93
58223;BME280;44020;50.890;15.796;2023-04-07T07:50:19;97713.83;;;3.17;68.05
58223;BME280;44020;50.890;15.796;2023-04-07T07:52:47;97708.25;;;3.20;67.97
58223;BME280;44020;50.890;15.796;2023-04-07T07:55:14;97716.14;;;3.20;67.55
58223;BME280;44020;50.890;15.796;2023-04-07T07:57:41;97719.88;;;3.19;67.84
58223;BME280;44020;50.890;15.796;2023-04-07T08:00:08;97720.14;;;3.21;68.00
58223;BME280;44020;50.890;15.796;2023-04-07T08:02:36;97721.97;;;3.23;67.66
58223;BME280;44020;50.890;15.796;2023-04-07T08:05:04;97720.36;;;3.24;67.55
58223;BME280;44020;50.890;15.796;2023-04-07T08:07:31;97722.19;;;3.27;67.32
58223;BME280;44020;50.890;15.796;2023-04-07T08:09:58;97723.20;;;3.23;67.70
58223;BME280;44020;50.890;15.796;2023-04-07T08:12:25;97722.36;;;3.23;67.84
58223;BME280;44020;50.890;15.796;2023-04-07T08:14:52;97729.91;;;3.22;67.86
58223;BME280;44020;50.890;15.796;2023-04-07T08:17:19;97731.82;;;3.23;67.84
58223;BME280;44020;50.890;15.796;2023-04-07T08:19:46;97732.23;;;3.26;67.78
58223;BME280;44020;50.890;15.796;2023-04-07T08:22:13;97730.09;;;3.27;67.89
58223;BME280;44020;50.890;15.796;2023-04-07T08:24:41;97728.98;;;3.24;68.05
58223;BME280;44020;50.890;15.796;2023-04-07T08:27:07;97724.05;;;3.19;68.18
58223;BME280;44020;50.890;15.796;2023-04-07T08:29:34;97720.00;;;3.20;68.38
58223;BME280;44020;50.890;15.796;2023-04-07T08:32:01;97714.91;;;3.20;68.70
58223;BME280;44020;50.890;15.796;2023-04-07T08:34:28;97712.97;;;3.24;68.49
58223;BME280;44020;50.890;15.796;2023-04-07T08:36:56;97712.30;;;3.28;68.53
58223;BME280;44020;50.890;15.796;2023-04-07T08:39:23;97712.34;;;3.31;68.61
58223;BME280;44020;50.890;15.796;2023-04-07T08:41:51;97711.16;;;3.34;68.56
58223;BME280;44020;50.890;15.796;2023-04-07T08:44:18;97709.92;;;3.39;68.93
58223;BME280;44020;50.890;15.796;2023-04-07T08:46:48;97712.66;;;3.45;68.65
58223;BME280;44020;50.890;15.796;2023-04-07T08:49:16;97713.22;;;3.48;68.54
58223;BME280;44020;50.890;15.796;2023-04-07T08:51:44;97710.55;;;3.53;68.65
58223;BME280;44020;50.890;15.796;2023-04-07T08:54:17;97714.23;;;3.58;68.38
58223;BME280;44020;50.890;15.796;2023-04-07T08:56:44;97709.03;;;3.60;68.22
58223;BME280;44020;50.890;15.796;2023-04-07T08:59:14;97709.43;;;3.63;68.28
58223;BME280;44020;50.890;15.796;2023-04-07T09:01:44;97707.86;;;3.67;67.97
58223;BME280;44020;50.890;15.796;2023-04-07T09:04:12;97710.04;;;3.69;68.48
58223;BME280;44020;50.890;15.796;2023-04-07T09:06:39;97708.78;;;3.74;68.13
58223;BME280;44020;50.890;15.796;2023-04-07T09:09:06;97708.39;;;3.75;67.90
58223;BME280;44020;50.890;15.796;2023-04-07T09:11:37;97708.79;;;3.74;67.89
58223;BME280;44020;50.890;15.796;2023-04-07T09:14:05;97702.16;;;3.73;67.97
58223;BME280;44020;50.890;15.796;2023-04-07T09:16:33;97701.80;;;3.78;68.00
58223;BME280;44020;50.890;15.796;2023-04-07T09:19:00;97700.43;;;3.80;68.00
58223;BME280;44020;50.890;15.796;2023-04-07T09:21:46;97702.89;;;3.85;68.15
58223;BME280;44020;50.890;15.796;2023-04-07T09:24:23;97704.36;;;3.87;67.90
58223;BME280;44020;50.890;15.796;2023-04-07T09:29:40;97705.50;;;3.89;67.93
58223;BME280;44020;50.890;15.796;2023-04-07T09:32:08;97703.14;;;3.91;67.70
58223;BME280;44020;50.890;15.796;2023-04-07T09:34:36;97701.71;;;3.92;67.78
58223;BME280;44020;50.890;15.796;2023-04-07T09:37:05;97705.98;;;3.90;67.66
58223;BME280;44020;50.890;15.796;2023-04-07T09:39:32;97704.98;;;3.89;67.89
58223;BME280;44020;50.890;15.796;2023-04-07T09:42:03;97704.20;;;3.91;67.74
58223;BME280;44020;50.890;15.796;2023-04-07T09:44:38;97698.45;;;3.90;67.77
58223;BME280;44020;50.890;15.796;2023-04-07T09:47:05;97697.44;;;3.92;67.82
58223;BME280;44020;50.890;15.796;2023-04-07T09:49:33;97695.77;;;3.95;67.77
58223;BME280;44020;50.890;15.796;2023-04-07T09:52:14;97693.21;;;3.97;67.86
58223;BME280;44020;50.890;15.796;2023-04-07T09:54:43;97694.63;;;4.01;67.61
58223;BME280;44020;50.890;15.796;2023-04-07T09:57:11;97690.41;;;4.01;67.54
58223;BME280;44020;50.890;15.796;2023-04-07T09:59:40;97689.73;;;4.00;67.59
58223;BME280;44020;50.890;15.796;2023-04-07T10:02:10;97689.48;;;4.02;67.55
58223;BME280;44020;50.890;15.796;2023-04-07T10:04:38;97688.37;;;4.03;67.48
58223;BME280;44020;50.890;15.796;2023-04-07T10:07:06;97689.91;;;4.00;67.71
58223;BME280;44020;50.890;15.796;2023-04-07T10:09:33;97692.78;;;4.03;67.76
58223;BME280;44020;50.890;15.796;2023-04-07T10:12:01;97690.77;;;4.05;67.70
58223;BME280;44020;50.890;15.796;2023-04-07T10:14:31;97692.32;;;4.05;67.89
58223;BME280;44020;50.890;15.796;2023-04-07T10:16:59;97689.14;;;4.06;67.90
58223;BME280;44020;50.890;15.796;2023-04-07T10:19:31;97687.39;;;4.09;67.83
58223;BME280;44020;50.890;15.796;2023-04-07T10:22:01;97686.45;;;4.07;67.84
58223;BME280;44020;50.890;15.796;2023-04-07T10:26:58;97692.79;;;4.10;67.71
58223;BME280;44020;50.890;15.796;2023-04-07T10:29:28;97693.20;;;4.09;67.78
58223;BME280;44020;50.890;15.796;2023-04-07T10:31:58;97689.42;;;4.11;67.89
58223;BME280;44020;50.890;15.796;2023-04-07T10:34:54;97686.17;;;4.13;67.99
58223;BME280;44020;50.890;15.796;2023-04-07T10:37:13;97690.39;;;4.17;67.92
58223;BME280;44020;50.890;15.796;2023-04-07T10:39:43;97689.38;;;4.20;67.87
58223;BME280;44020;50.890;15.796;2023-04-07T10:44:57;97688.64;;;4.17;67.76
58223;BME280;44020;50.890;15.796;2023-04-07T10:47:26;97690.23;;;4.21;67.71
58223;BME280;44020;50.890;15.796;2023-04-07T10:52:39;97693.81;;;4.27;67.61
58223;BME280;44020;50.890;15.796;2023-04-07T11:00:39;97690.25;;;4.24;67.67
58223;BME280;44020;50.890;15.796;2023-04-07T11:03:12;97689.20;;;4.24;68.02
58223;BME280;44020;50.890;15.796;2023-04-07T11:05:40;97688.73;;;4.27;68.13
58223;BME280;44020;50.890;15.796;2023-04-07T11:08:07;97696.39;;;4.28;68.50
58223;BME280;44020;50.890;15.796;2023-04-07T11:10:34;97698.42;;;4.30;68.51
58223;BME280;44020;50.890;15.796;2023-04-07T11:13:05;97698.11;;;4.29;69.02
58223;BME280;44020;50.890;15.796;2023-04-07T11:15:34;97700.31;;;4.31;69.20
58223;BME280;44020;50.890;15.796;2023-04-07T11:18:05;97697.45;;;4.32;69.29
58223;BME280;44020;50.890;15.796;2023-04-07T11:20:42;97696.47;;;4.34;69.61
58223;BME280;44020;50.890;15.796;2023-04-07T11:23:10;97698.63;;;4.33;69.63
58223;BME280;44020;50.890;15.796;2023-04-07T11:25:37;97695.27;;;4.30;69.90
58223;BME280;44020;50.890;15.796;2023-04-07T11:28:05;97698.89;;;4.28;70.07
58223;BME280;44020;50.890;15.796;2023-04-07T11:30:32;97696.09;;;4.27;70.28
58223;BME280;44020;50.890;15.796;2023-04-07T11:33:00;97696.02;;;4.29;70.38
58223;BME280;44020;50.890;15.796;2023-04-07T11:35:27;97695.72;;;4.27;70.39
58223;BME280;44020;50.890;15.796;2023-04-07T11:37:58;97695.63;;;4.30;70.56
58223;BME280;44020;50.890;15.796;2023-04-07T11:40:33;97693.11;;;4.27;70.63
58223;BME280;44020;50.890;15.796;2023-04-07T11:43:00;97693.00;;;4.26;70.81
58223;BME280;44020;50.890;15.796;2023-04-07T11:45:28;97690.02;;;4.29;71.01
58223;BME280;44020;50.890;15.796;2023-04-07T11:47:55;97688.73;;;4.30;70.85
58223;BME280;44020;50.890;15.796;2023-04-07T11:50:41;97690.07;;;4.32;71.13
58223;BME280;44020;50.890;15.796;2023-04-07T11:53:09;97692.02;;;4.35;71.28
58223;BME280;44020;50.890;15.796;2023-04-07T11:55:36;97695.45;;;4.37;71.24
58223;BME280;44020;50.890;15.796;2023-04-07T11:58:06;97697.42;;;4.41;71.30
58223;BME280;44020;50.890;15.796;2023-04-07T12:00:51;97696.98;;;4.43;71.03
58223;BME280;44020;50.890;15.796;2023-04-07T12:03:19;97694.46;;;4.44;71.27
58223;BME280;44020;50.890;15.796;2023-04-07T12:05:46;97688.77;;;4.45;71.41
58223;BME280;44020;50.890;15.796;2023-04-07T12:08:13;97690.13;;;4.46;71.70
58223;BME280;44020;50.890;15.796;2023-04-07T12:10:42;97683.94;;;4.51;71.83
58223;BME280;44020;50.890;15.796;2023-04-07T12:13:09;97685.83;;;4.51;71.77
58223;BME280;44020;50.890;15.796;2023-04-07T12:15:36;97684.17;;;4.50;71.80
58223;BME280;44020;50.890;15.796;2023-04-07T12:18:04;97686.13;;;4.53;71.89
58223;BME280;44020;50.890;15.796;2023-04-07T12:20:31;97689.33;;;4.56;71.67
58223;BME280;44020;50.890;15.796;2023-04-07T12:22:58;97689.41;;;4.58;71.94
58223;BME280;44020;50.890;15.796;2023-04-07T12:25:26;97686.73;;;4.63;72.20
58223;BME280;44020;50.890;15.796;2023-04-07T12:27:53;97684.42;;;4.63;72.45
58223;BME280;44020;50.890;15.796;2023-04-07T12:30:20;97684.54;;;4.65;72.37
58223;BME280;44020;50.890;15.796;2023-04-07T12:32:48;97685.90;;;4.62;72.53
58223;BME280;44020;50.890;15.796;2023-04-07T12:35:16;97683.64;;;4.61;72.93
58223;BME280;44020;50.890;15.796;2023-04-07T12:37:43;97681.02;;;4.61;73.04
58223;BME280;44020;50.890;15.796;2023-04-07T12:40:10;97680.23;;;4.62;73.08
58223;BME280;44020;50.890;15.796;2023-04-07T12:42:38;97678.08;;;4.67;73.11
58223;BME280;44020;50.890;15.796;2023-04-07T12:45:05;97679.62;;;4.72;72.95
58223;BME280;44020;50.890;15.796;2023-04-07T12:47:32;97679.56;;;4.73;73.01
58223;BME280;44020;50.890;15.796;2023-04-07T12:49:59;97681.29;;;4.77;73.22
58223;BME280;44020;50.890;15.796;2023-04-07T12:52:27;97683.98;;;4.84;73.22
58223;BME280;44020;50.890;15.796;2023-04-07T12:54:55;97684.01;;;4.87;72.92
58223;BME280;44020;50.890;15.796;2023-04-07T12:57:23;97681.73;;;4.87;72.65
58223;BME280;44020;50.890;15.796;2023-04-07T12:59:50;97678.67;;;4.88;72.61
58223;BME280;44020;50.890;15.796;2023-04-07T13:02:19;97682.44;;;4.90;72.38
58223;BME280;44020;50.890;15.796;2023-04-07T13:04:47;97682.55;;;4.88;72.10
58223;BME280;44020;50.890;15.796;2023-04-07T13:07:15;97683.97;;;4.88;72.28
58223;BME280;44020;50.890;15.796;2023-04-07T13:09:43;97684.10;;;4.89;71.92
58223;BME280;44020;50.890;15.796;2023-04-07T13:12:13;97687.38;;;4.82;71.81
58223;BME280;44020;50.890;15.796;2023-04-07T13:14:41;97683.98;;;4.79;72.19
58223;BME280;44020;50.890;15.796;2023-04-07T13:17:09;97684.69;;;4.79;72.33
58223;BME280;44020;50.890;15.796;2023-04-07T13:19:38;97687.70;;;4.79;72.33
58223;BME280;44020;50.890;15.796;2023-04-07T13:22:07;97686.89;;;4.78;72.44
58223;BME280;44020;50.890;15.796;2023-04-07T13:24:35;97684.63;;;4.77;72.34
58223;BME280;44020;50.890;15.796;2023-04-07T13:27:03;97683.48;;;4.75;72.39
58223;BME280;44020;50.890;15.796;2023-04-07T13:29:32;97684.19;;;4.75;72.59
58223;BME280;44020;50.890;15.796;2023-04-07T13:32:04;97687.27;;;4.77;72.30